sensor_id;sensor_type;location;lat;lon;timestamp;pressure;altitude;pressure_sealevel;temperature;humidity
64827;BME280;51265;53.972;12.286;2023-04-28T00:00:30;101186.38;;;2.31;100.00
64827;BME280;51265;53.972;12.286;2023-04-28T00:02:56;101188.34;;;2.24;100.00
64827;BME280;51265;53.972;12.286;2023-04-28T00:05:23;101178.41;;;2.18;100.00
64827;BME280;51265;53.972;12.286;2023-04-28T00:07:50;101186.56;;;2.18;100.00
64827;BME280;51265;53.972;12.286;2023-04-28T00:10:16;101183.34;;;2.21;100.00
64827;BME280;51265;53.972;12.286;2023-04-28T00:12:42;101183.09;;;2.11;100.00
64827;BME280;51265;53.972;12.286;2023-04-28T00:15:09;101186.88;;;2.10;100.00
64827;BME280;51265;53.972;12.286;2023-04-28T00:17:36;101183.09;;;2.11;100.00
64827;BME280;51265;53.972;12.286;2023-04-28T00:20:02;101186.41;;;2.13;100.00
64827;BME280;51265;53.972;12.286;2023-04-28T00:22:29;101171.91;;;2.00;100.00
64827;BME280;51265;53.972;12.286;2023-04-28T00:24:56;101184.28;;;2.15;100.00
64827;BME280;51265;53.972;12.286;2023-04-28T00:27:22;101176.00;;;2.10;100.00
64827;BME280;51265;53.972;12.286;2023-04-28T00:29:49;101168.25;;;1.95;100.00
64827;BME280;51265;53.972;12.286;2023-04-28T00:32:15;101162.28;;;1.86;100.00
64827;BME280;51265;53.972;12.286;2023-04-28T00:34:41;101160.94;;;1.77;100.00
64827;BME280;51265;53.972;12.286;2023-04-28T00:37:07;101158.09;;;1.72;100.00
64827;BME280;51265;53.972;12.286;2023-04-28T00:39:34;101167.28;;;1.71;100.00
64827;BME280;51265;53.972;12.286;2023-04-28T00:42:00;101181.03;;;1.76;100.00
64827;BME280;51265;53.972;12.286;2023-04-28T00:44:27;101178.34;;;1.88;100.00
64827;BME280;51265;53.972;12.286;2023-04-28T00:46:53;101161.16;;;1.75;100.00
64827;BME280;51265;53.972;12.286;2023-04-28T00:49:20;101162.00;;;1.58;100.00
64827;BME280;51265;53.972;12.286;2023-04-28T00:51:46;101161.72;;;1.47;100.00
64827;BME280;51265;53.972;12.286;2023-04-28T00:54:13;101153.38;;;1.24;100.00
64827;BME280;51265;53.972;12.286;2023-04-28T00:56:39;101150.22;;;1.09;100.00
64827;BME280;51265;53.972;12.286;2023-04-28T00:59:06;101159.06;;;0.97;100.00
64827;BME280;51265;53.972;12.286;2023-04-28T01:01:32;101151.81;;;0.91;100.00
64827;BME280;51265;53.972;12.286;2023-04-28T01:03:59;101154.75;;;0.90;100.00
64827;BME280;51265;53.972;12.286;2023-04-28T01:06:27;101157.22;;;0.91;100.00
64827;BME280;51265;53.972;12.286;2023-04-28T01:08:56;101165.81;;;0.88;100.00
64827;BME280;51265;53.972;12.286;2023-04-28T01:11:23;101169.38;;;0.89;100.00
64827;BME280;51265;53.972;12.286;2023-04-28T01:14:03;101175.78;;;0.94;100.00
64827;BME280;51265;53.972;12.286;2023-04-28T01:16:34;101171.13;;;1.02;100.00
64827;BME280;51265;53.972;12.286;2023-04-28T01:19:02;101169.00;;;1.04;100.00
64827;BME280;51265;53.972;12.286;2023-04-28T01:21:30;101177.16;;;1.04;100.00
64827;BME280;51265;53.972;12.286;2023-04-28T01:24:09;101178.84;;;1.05;100.00
64827;BME280;51265;53.972;12.286;2023-04-28T01:26:35;101163.00;;;1.02;100.00
64827;BME280;51265;53.972;12.286;2023-04-28T01:29:04;101179.88;;;1.04;100.00
64827;BME280;51265;53.972;12.286;2023-04-28T01:31:31;101174.28;;;0.98;100.00
64827;BME280;51265;53.972;12.286;2023-04-28T01:33:58;101182.56;;;1.04;100.00
64827;BME280;51265;53.972;12.286;2023-04-28T01:36:24;101167.09;;;1.11;100.00
64827;BME280;51265;53.972;12.286;2023-04-28T01:38:53;101166.16;;;1.17;100.00
64827;BME280;51265;53.972;12.286;2023-04-28T01:41:19;101166.06;;;1.30;100.00
64827;BME280;51265;53.972;12.286;2023-04-28T01:43:46;101165.16;;;1.36;100.00
64827;BME280;51265;53.972;12.286;2023-04-28T01:46:12;101173.25;;;1.43;100.00
64827;BME280;51265;53.972;12.286;2023-04-28T01:48:39;101176.69;;;1.50;100.00
64827;BME280;51265;53.972;12.286;2023-04-28T01:51:05;101166.38;;;1.59;100.00
64827;BME280;51265;53.972;12.286;2023-04-28T01:53:32;101168.63;;;1.62;100.00
64827;BME280;51265;53.972;12.286;2023-04-28T01:55:58;101152.78;;;1.59;100.00
64827;BME280;51265;53.972;12.286;2023-04-28T01:58:25;101153.94;;;1.51;100.00
64827;BME280;51265;53.972;12.286;2023-04-28T02:00:52;101155.50;;;1.40;100.00
64827;BME280;51265;53.972;12.286;2023-04-28T02:03:21;101146.25;;;1.30;100.00
64827;BME280;51265;53.972;12.286;2023-04-28T02:05:47;101141.47;;;1.25;100.00
64827;BME280;51265;53.972;12.286;2023-04-28T02:08:14;101145.56;;;1.34;100.00
64827;BME280;51265;53.972;12.286;2023-04-28T02:10:41;101149.31;;;1.33;100.00
64827;BME280;51265;53.972;12.286;2023-04-28T02:13:07;101141.78;;;1.35;100.00
64827;BME280;51265;53.972;12.286;2023-04-28T02:15:38;101146.31;;;1.41;100.00
64827;BME280;51265;53.972;12.286;2023-04-28T02:18:05;101137.34;;;1.41;100.00
64827;BME280;51265;53.972;12.286;2023-04-28T02:20:31;101140.59;;;1.31;100.00
64827;BME280;51265;53.972;12.286;2023-04-28T02:22:58;101132.72;;;1.23;100.00
64827;BME280;51265;53.972;12.286;2023-04-28T02:25:25;101133.25;;;1.13;100.00
64827;BME280;51265;53.972;12.286;2023-04-28T02:27:51;101133.31;;;1.07;100.00
64827;BME280;51265;53.972;12.286;2023-04-28T02:30:18;101136.06;;;1.00;100.00
64827;BME280;51265;53.972;12.286;2023-04-28T02:32:45;101142.06;;;1.09;100.00
64827;BME280;51265;53.972;12.286;2023-04-28T02:35:11;101143.72;;;1.10;100.00
64827;BME280;51265;53.972;12.286;2023-04-28T02:37:38;101138.28;;;1.10;100.00
64827;BME280;51265;53.972;12.286;2023-04-28T02:40:04;101141.41;;;0.88;100.00
64827;BME280;51265;53.972;12.286;2023-04-28T02:42:32;101136.09;;;0.75;100.00
64827;BME280;51265;53.972;12.286;2023-04-28T02:44:58;101137.41;;;0.66;100.00
64827;BME280;51265;53.972;12.286;2023-04-28T02:47:24;101139.56;;;0.57;100.00
64827;BME280;51265;53.972;12.286;2023-04-28T02:49:51;101140.06;;;0.47;100.00
64827;BME280;51265;53.972;12.286;2023-04-28T02:52:17;101137.19;;;0.42;100.00
64827;BME280;51265;53.972;12.286;2023-04-28T02:54:44;101135.16;;;0.38;100.00
64827;BME280;51265;53.972;12.286;2023-04-28T02:57:14;101144.97;;;0.32;100.00
64827;BME280;51265;53.972;12.286;2023-04-28T02:59:40;101151.44;;;0.31;100.00
64827;BME280;51265;53.972;12.286;2023-04-28T03:02:06;101148.88;;;0.36;100.00
64827;BME280;51265;53.972;12.286;2023-04-28T03:04:34;101151.00;;;0.34;100.00
64827;BME280;51265;53.972;12.286;2023-04-28T03:07:00;101148.31;;;0.28;100.00
64827;BME280;51265;53.972;12.286;2023-04-28T03:09:27;101151.66;;;0.30;100.00
64827;BME280;51265;53.972;12.286;2023-04-28T03:11:53;101154.47;;;0.41;100.00
64827;BME280;51265;53.972;12.286;2023-04-28T03:14:20;101150.91;;;0.47;100.00
64827;BME280;51265;53.972;12.286;2023-04-28T03:16:46;101146.97;;;0.43;100.00
64827;BME280;51265;53.972;12.286;2023-04-28T03:19:13;101150.38;;;0.32;100.00
64827;BME280;51265;53.972;12.286;2023-04-28T03:21:40;101147.31;;;0.22;100.00
64827;BME280;51265;53.972;12.286;2023-04-28T03:24:06;101145.66;;;0.21;100.00
64827;BME280;51265;53.972;12.286;2023-04-28T03:26:33;101147.34;;;0.15;100.00
64827;BME280;51265;53.972;12.286;2023-04-28T03:29:00;101149.47;;;0.13;100.00
64827;BME280;51265;53.972;12.286;2023-04-28T03:31:26;101145.28;;;0.11;100.00
64827;BME280;51265;53.972;12.286;2023-04-28T03:33:53;101142.09;;;0.20;100.00
64827;BME280;51265;53.972;12.286;2023-04-28T03:36:20;101141.50;;;0.18;100.00
64827;BME280;51265;53.972;12.286;2023-04-28T03:38:46;101149.88;;;0.17;100.00
64827;BME280;51265;53.972;12.286;2023-04-28T03:41:13;101141.91;;;0.22;100.00
64827;BME280;51265;53.972;12.286;2023-04-28T03:43:58;101141.25;;;0.27;100.00
64827;BME280;51265;53.972;12.286;2023-04-28T03:46:34;101143.91;;;0.33;100.00
64827;BME280;51265;53.972;12.286;2023-04-28T03:49:00;101138.84;;;0.43;100.00
64827;BME280;51265;53.972;12.286;2023-04-28T03:51:31;101135.06;;;0.44;100.00
64827;BME280;51265;53.972;12.286;2023-04-28T03:53:58;101128.16;;;0.48;100.00
64827;BME280;51265;53.972;12.286;2023-04-28T03:56:25;101129.81;;;0.49;100.00
64827;BME280;51265;53.972;12.286;2023-04-28T03:58:54;101139.19;;;0.54;100.00
64827;BME280;51265;53.972;12.286;2023-04-28T04:01:21;101125.63;;;0.54;100.00
64827;BME280;51265;53.972;12.286;2023-04-28T04:03:49;101128.78;;;0.51;100.00
64827;BME280;51265;53.972;12.286;2023-04-28T04:06:17;101130.88;;;0.48;100.00
64827;BME280;51265;53.972;12.286;2023-04-28T04:08:44;101122.16;;;0.46;100.00
64827;BME280;51265;53.972;12.286;2023-04-28T04:11:10;101126.25;;;0.56;100.00
64827;BME280;51265;53.972;12.286;2023-04-28T04:13:37;101123.69;;;0.61;100.00
64827;BME280;51265;53.972;12.286;2023-04-28T04:16:06;101127.63;;;0.65;100.00
64827;BME280;51265;53.972;12.286;2023-04-28T04:18:33;101125.25;;;0.75;100.00
64827;BME280;51265;53.972;12.286;2023-04-28T04:21:10;101124.59;;;0.80;100.00
64827;BME280;51265;53.972;12.286;2023-04-28T04:23:37;101120.66;;;0.76;100.00
64827;BME280;51265;53.972;12.286;2023-04-28T04:26:03;101119.78;;;0.82;100.00
64827;BME280;51265;53.972;12.286;2023-04-28T04:28:31;101116.16;;;0.88;100.00
64827;BME280;51265;53.972;12.286;2023-04-28T04:30:57;101110.09;;;0.92;100.00
64827;BME280;51265;53.972;12.286;2023-04-28T04:33:24;101114.72;;;1.10;100.00
64827;BME280;51265;53.972;12.286;2023-04-28T04:35:51;101109.97;;;1.24;100.00
64827;BME280;51265;53.972;12.286;2023-04-28T04:38:17;101111.50;;;1.38;100.00
64827;BME280;51265;53.972;12.286;2023-04-28T04:40:43;101104.41;;;1.56;100.00
64827;BME280;51265;53.972;12.286;2023-04-28T04:43:10;101108.59;;;1.70;100.00
64827;BME280;51265;53.972;12.286;2023-04-28T04:45:43;101100.63;;;1.87;100.00
64827;BME280;51265;53.972;12.286;2023-04-28T04:48:14;101104.41;;;2.16;100.00
64827;BME280;51265;53.972;12.286;2023-04-28T04:50:41;101100.84;;;2.45;100.00
64827;BME280;51265;53.972;12.286;2023-04-28T04:53:08;101100.84;;;2.57;100.00
64827;BME280;51265;53.972;12.286;2023-04-28T04:55:35;101098.28;;;2.74;100.00
64827;BME280;51265;53.972;12.286;2023-04-28T04:58:03;101093.31;;;2.83;100.00
64827;BME280;51265;53.972;12.286;2023-04-28T05:00:41;101090.81;;;3.05;100.00
64827;BME280;51265;53.972;12.286;2023-04-28T05:03:09;101080.66;;;3.12;100.00
64827;BME280;51265;53.972;12.286;2023-04-28T05:05:36;101083.00;;;3.20;100.00
64827;BME280;51265;53.972;12.286;2023-04-28T05:08:11;101081.09;;;3.32;100.00
64827;BME280;51265;53.972;12.286;2023-04-28T05:10:37;101071.03;;;3.33;100.00
64827;BME280;51265;53.972;12.286;2023-04-28T05:13:04;101075.66;;;3.32;100.00
64827;BME280;51265;53.972;12.286;2023-04-28T05:15:31;101073.03;;;3.37;100.00
64827;BME280;51265;53.972;12.286;2023-04-28T05:18:22;101065.81;;;3.43;100.00
64827;BME280;51265;53.972;12.286;2023-04-28T05:20:49;101058.81;;;3.47;100.00
64827;BME280;51265;53.972;12.286;2023-04-28T05:23:18;101058.41;;;3.55;100.00
64827;BME280;51265;53.972;12.286;2023-04-28T05:25:44;101050.97;;;3.50;100.00
64827;BME280;51265;53.972;12.286;2023-04-28T05:28:10;101056.63;;;3.61;100.00
64827;BME280;51265;53.972;12.286;2023-04-28T05:30:37;101052.53;;;3.75;100.00
64827;BME280;51265;53.972;12.286;2023-04-28T05:33:03;101047.31;;;3.85;100.00
64827;BME280;51265;53.972;12.286;2023-04-28T05:35:30;101060.72;;;4.04;100.00
64827;BME280;51265;53.972;12.286;2023-04-28T05:37:57;101062.72;;;4.25;100.00
64827;BME280;51265;53.972;12.286;2023-04-28T05:40:24;101065.06;;;4.50;100.00
64827;BME280;51265;53.972;12.286;2023-04-28T05:42:52;101056.13;;;4.71;100.00
64827;BME280;51265;53.972;12.286;2023-04-28T05:45:18;101048.50;;;4.90;100.00
64827;BME280;51265;53.972;12.286;2023-04-28T05:47:44;101045.47;;;5.09;100.00
64827;BME280;51265;53.972;12.286;2023-04-28T05:50:11;101038.16;;;5.31;100.00
64827;BME280;51265;53.972;12.286;2023-04-28T05:52:37;101039.41;;;5.45;100.00
64827;BME280;51265;53.972;12.286;2023-04-28T05:55:04;101026.75;;;5.61;100.00
64827;BME280;51265;53.972;12.286;2023-04-28T05:57:31;101028.31;;;5.79;100.00
64827;BME280;51265;53.972;12.286;2023-04-28T05:59:57;101026.25;;;5.91;100.00
64827;BME280;51265;53.972;12.286;2023-04-28T06:02:24;101013.78;;;6.01;100.00
64827;BME280;51265;53.972;12.286;2023-04-28T06:04:50;101006.25;;;6.13;100.00
64827;BME280;51265;53.972;12.286;2023-04-28T06:07:17;100997.63;;;6.26;100.00
64827;BME280;51265;53.972;12.286;2023-04-28T06:09:43;100999.91;;;6.39;100.00
64827;BME280;51265;53.972;12.286;2023-04-28T06:12:10;100991.16;;;6.37;100.00
64827;BME280;51265;53.972;12.286;2023-04-28T06:14:36;100989.03;;;6.49;100.00
64827;BME280;51265;53.972;12.286;2023-04-28T06:17:03;100988.53;;;6.53;100.00
64827;BME280;51265;53.972;12.286;2023-04-28T06:19:29;100979.19;;;6.48;100.00
64827;BME280;51265;53.972;12.286;2023-04-28T06:21:56;100982.50;;;6.56;100.00
64827;BME280;51265;53.972;12.286;2023-04-28T06:24:22;100975.88;;;6.46;100.00
64827;BME280;51265;53.972;12.286;2023-04-28T06:26:52;100966.00;;;6.40;100.00
64827;BME280;51265;53.972;12.286;2023-04-28T06:29:20;100965.94;;;6.35;100.00
64827;BME280;51265;53.972;12.286;2023-04-28T06:31:48;100963.13;;;6.20;100.00
64827;BME280;51265;53.972;12.286;2023-04-28T06:34:15;100951.03;;;6.16;100.00
64827;BME280;51265;53.972;12.286;2023-04-28T06:36:59;100953.19;;;6.14;100.00
64827;BME280;51265;53.972;12.286;2023-04-28T06:39:27;100949.41;;;6.15;100.00
64827;BME280;51265;53.972;12.286;2023-04-28T06:41:53;100951.94;;;6.27;100.00
64827;BME280;51265;53.972;12.286;2023-04-28T06:44:22;100956.13;;;6.39;100.00
64827;BME280;51265;53.972;12.286;2023-04-28T06:46:49;100950.75;;;6.55;100.00
64827;BME280;51265;53.972;12.286;2023-04-28T06:49:15;100953.59;;;6.65;100.00
64827;BME280;51265;53.972;12.286;2023-04-28T06:51:42;100945.19;;;6.82;100.00
64827;BME280;51265;53.972;12.286;2023-04-28T06:54:08;100948.28;;;7.06;100.00
64827;BME280;51265;53.972;12.286;2023-04-28T06:56:34;100942.66;;;7.28;100.00
64827;BME280;51265;53.972;12.286;2023-04-28T06:59:01;100922.66;;;7.42;100.00
64827;BME280;51265;53.972;12.286;2023-04-28T07:01:29;100913.91;;;7.56;97.81
64827;BME280;51265;53.972;12.286;2023-04-28T07:03:55;100909.56;;;7.80;96.28
64827;BME280;51265;53.972;12.286;2023-04-28T07:06:21;100902.44;;;7.99;94.70
64827;BME280;51265;53.972;12.286;2023-04-28T07:08:48;100884.84;;;8.26;93.35
64827;BME280;51265;53.972;12.286;2023-04-28T07:11:14;100867.84;;;8.44;90.83
64827;BME280;51265;53.972;12.286;2023-04-28T07:13:41;100851.06;;;8.56;88.06
64827;BME280;51265;53.972;12.286;2023-04-28T07:16:08;100830.91;;;8.81;85.40
64827;BME280;51265;53.972;12.286;2023-04-28T07:18:36;100810.53;;;8.92;82.58
64827;BME280;51265;53.972;12.286;2023-04-28T07:21:02;100809.84;;;9.16;82.33
64827;BME280;51265;53.972;12.286;2023-04-28T07:23:28;100802.31;;;9.32;80.78
64827;BME280;51265;53.972;12.286;2023-04-28T07:25:56;100791.97;;;9.53;78.97
64827;BME280;51265;53.972;12.286;2023-04-28T07:28:22;100781.03;;;9.77;77.78
64827;BME280;51265;53.972;12.286;2023-04-28T07:30:48;100766.66;;;9.85;76.68
64827;BME280;51265;53.972;12.286;2023-04-28T07:33:15;100754.88;;;10.08;75.50
64827;BME280;51265;53.972;12.286;2023-04-28T07:35:41;100741.78;;;10.19;74.43
64827;BME280;51265;53.972;12.286;2023-04-28T07:38:08;100741.72;;;10.24;74.03
64827;BME280;51265;53.972;12.286;2023-04-28T07:40:34;100745.63;;;10.47;73.65
64827;BME280;51265;53.972;12.286;2023-04-28T07:43:00;100725.38;;;10.57;73.53
64827;BME280;51265;53.972;12.286;2023-04-28T07:45:27;100690.63;;;10.61;71.09
64827;BME280;51265;53.972;12.286;2023-04-28T07:47:53;100697.47;;;10.82;70.10
64827;BME280;51265;53.972;12.286;2023-04-28T07:50:20;100656.22;;;10.77;68.55
64827;BME280;51265;53.972;12.286;2023-04-28T07:52:46;100653.81;;;10.89;67.67
64827;BME280;51265;53.972;12.286;2023-04-28T07:55:13;100661.03;;;11.04;67.76
64827;BME280;51265;53.972;12.286;2023-04-28T07:57:39;100628.09;;;11.13;66.38
64827;BME280;51265;53.972;12.286;2023-04-28T08:00:07;100600.66;;;11.21;64.53
64827;BME280;51265;53.972;12.286;2023-04-28T08:02:40;100603.41;;;11.35;64.47
64827;BME280;51265;53.972;12.286;2023-04-28T08:05:07;100602.09;;;11.46;64.74
64827;BME280;51265;53.972;12.286;2023-04-28T08:07:34;100588.22;;;11.52;63.73
64827;BME280;51265;53.972;12.286;2023-04-28T08:10:03;100565.34;;;11.51;62.90
64827;BME280;51265;53.972;12.286;2023-04-28T08:12:29;100545.09;;;11.56;62.04
64827;BME280;51265;53.972;12.286;2023-04-28T08:14:56;100531.41;;;11.51;61.28
64827;BME280;51265;53.972;12.286;2023-04-28T08:17:23;100544.06;;;11.65;61.87
64827;BME280;51265;53.972;12.286;2023-04-28T08:19:49;100571.22;;;12.00;63.27
64827;BME280;51265;53.972;12.286;2023-04-28T08:22:15;100550.56;;;12.11;62.12
64827;BME280;51265;53.972;12.286;2023-04-28T08:24:42;100518.44;;;12.15;60.02
64827;BME280;51265;53.972;12.286;2023-04-28T08:27:08;100505.16;;;12.17;59.55
64827;BME280;51265;53.972;12.286;2023-04-28T08:29:35;100508.81;;;12.26;59.89
64827;BME280;51265;53.972;12.286;2023-04-28T08:32:01;100516.81;;;12.36;60.54
64827;BME280;51265;53.972;12.286;2023-04-28T08:34:27;100501.13;;;12.45;59.59
64827;BME280;51265;53.972;12.286;2023-04-28T08:36:54;100520.47;;;12.68;60.54
64827;BME280;51265;53.972;12.286;2023-04-28T08:39:20;100518.91;;;12.76;60.64
64827;BME280;51265;53.972;12.286;2023-04-28T08:41:48;100478.94;;;12.82;59.14
64827;BME280;51265;53.972;12.286;2023-04-28T08:44:15;100462.06;;;12.83;58.55
64827;BME280;51265;53.972;12.286;2023-04-28T08:46:43;100483.63;;;13.12;59.11
64827;BME280;51265;53.972;12.286;2023-04-28T08:49:13;100421.06;;;12.85;56.24
64827;BME280;51265;53.972;12.286;2023-04-28T08:51:59;100426.19;;;13.01;55.94
64827;BME280;51265;53.972;12.286;2023-04-28T08:54:34;100427.91;;;13.28;55.92
64827;BME280;51265;53.972;12.286;2023-04-28T08:57:01;100446.22;;;13.63;56.62
64827;BME280;51265;53.972;12.286;2023-04-28T08:59:29;100410.06;;;13.86;54.37
64827;BME280;51265;53.972;12.286;2023-04-28T09:01:56;100420.00;;;13.95;55.53
64827;BME280;51265;53.972;12.286;2023-04-28T09:04:22;100393.63;;;13.89;54.88
64827;BME280;51265;53.972;12.286;2023-04-28T09:06:48;100388.25;;;13.84;54.63
64827;BME280;51265;53.972;12.286;2023-04-28T09:14:29;100316.28;;;13.93;52.71
64827;BME280;51265;53.972;12.286;2023-04-28T09:16:56;100301.41;;;14.06;51.72
64827;BME280;51265;53.972;12.286;2023-04-28T09:19:23;100296.81;;;14.19;51.49
64827;BME280;51265;53.972;12.286;2023-04-28T09:21:56;100272.47;;;14.33;50.68
64827;BME280;51265;53.972;12.286;2023-04-28T09:26:57;100255.25;;;14.28;50.32
64827;BME280;51265;53.972;12.286;2023-04-28T09:29:24;100261.38;;;14.51;49.77
64827;BME280;51265;53.972;12.286;2023-04-28T09:31:51;100243.59;;;14.52;49.33
64827;BME280;51265;53.972;12.286;2023-04-28T09:34:18;100203.69;;;14.06;49.36
64827;BME280;51265;53.972;12.286;2023-04-28T09:36:44;100229.31;;;13.94;49.78
64827;BME280;51265;53.972;12.286;2023-04-28T09:39:11;100204.53;;;13.98;49.38
64827;BME280;51265;53.972;12.286;2023-04-28T09:41:39;100197.28;;;13.84;48.95
64827;BME280;51265;53.972;12.286;2023-04-28T09:44:23;100216.09;;;14.00;50.07
64827;BME280;51265;53.972;12.286;2023-04-28T09:46:50;100257.66;;;14.29;51.11
64827;BME280;51265;53.972;12.286;2023-04-28T09:49:16;100242.09;;;14.54;50.09
64827;BME280;51265;53.972;12.286;2023-04-28T09:51:42;100213.00;;;14.69;48.88
64827;BME280;51265;53.972;12.286;2023-04-28T09:54:09;100206.03;;;14.84;48.85
64827;BME280;51265;53.972;12.286;2023-04-28T09:56:39;100212.34;;;15.14;48.59
64827;BME280;51265;53.972;12.286;2023-04-28T09:59:06;100213.84;;;15.44;48.11
64827;BME280;51265;53.972;12.286;2023-04-28T10:01:37;100185.41;;;15.48;47.42
64827;BME280;51265;53.972;12.286;2023-04-28T10:04:06;100165.28;;;15.38;47.18
64827;BME280;51265;53.972;12.286;2023-04-28T10:06:33;100130.34;;;15.37;46.16
64827;BME280;51265;53.972;12.286;2023-04-28T10:09:04;100145.59;;;15.31;46.35
64827;BME280;51265;53.972;12.286;2023-04-28T10:11:32;100134.53;;;15.43;46.17
64827;BME280;51265;53.972;12.286;2023-04-28T10:13:59;100117.41;;;15.54;45.51
64827;BME280;51265;53.972;12.286;2023-04-28T10:16:29;100091.28;;;15.55;44.80
64827;BME280;51265;53.972;12.286;2023-04-28T10:18:56;100081.69;;;15.52;44.54
64827;BME280;51265;53.972;12.286;2023-04-28T10:21:23;100091.28;;;15.55;45.07
64827;BME280;51265;53.972;12.286;2023-04-28T10:24:02;100094.59;;;15.81;44.51
64827;BME280;51265;53.972;12.286;2023-04-28T10:29:25;100073.06;;;16.03;44.15
64827;BME280;51265;53.972;12.286;2023-04-28T10:32:14;100062.38;;;16.17;43.43
64827;BME280;51265;53.972;12.286;2023-04-28T10:34:40;100064.53;;;16.36;43.54
64827;BME280;51265;53.972;12.286;2023-04-28T10:37:07;100048.78;;;16.40;43.42
64827;BME280;51265;53.972;12.286;2023-04-28T10:39:33;100037.56;;;16.36;43.08
64827;BME280;51265;53.972;12.286;2023-04-28T10:42:00;100047.34;;;16.18;43.87
64827;BME280;51265;53.972;12.286;2023-04-28T10:47:09;100033.50;;;16.74;42.90
64827;BME280;51265;53.972;12.286;2023-04-28T10:55:25;100024.41;;;16.89;42.68
64827;BME280;51265;53.972;12.286;2023-04-28T11:00:41;100008.34;;;16.99;42.50
64827;BME280;51265;53.972;12.286;2023-04-28T11:03:07;100019.88;;;17.45;41.87
64827;BME280;51265;53.972;12.286;2023-04-28T11:05:34;100036.22;;;17.78;41.74
64827;BME280;51265;53.972;12.286;2023-04-28T11:13:35;100000.16;;;18.59;39.78
64827;BME280;51265;53.972;12.286;2023-04-28T11:16:02;99988.41;;;18.69;39.28
64827;BME280;51265;53.972;12.286;2023-04-28T11:18:47;99959.81;;;18.33;39.12
64827;BME280;51265;53.972;12.286;2023-04-28T11:21:14;99957.00;;;18.14;39.40
64827;BME280;51265;53.972;12.286;2023-04-28T11:23:41;99950.84;;;18.05;39.77
64827;BME280;51265;53.972;12.286;2023-04-28T11:26:08;99990.19;;;18.38;40.41
64827;BME280;51265;53.972;12.286;2023-04-28T11:28:34;99940.28;;;18.14;39.72
64827;BME280;51265;53.972;12.286;2023-04-28T11:31:10;99957.97;;;18.22;39.82
64827;BME280;51265;53.972;12.286;2023-04-28T11:33:37;99950.28;;;18.15;39.96
64827;BME280;51265;53.972;12.286;2023-04-28T11:36:04;99916.56;;;18.20;38.77
64827;BME280;51265;53.972;12.286;2023-04-28T11:38:51;99963.47;;;18.57;39.14
64827;BME280;51265;53.972;12.286;2023-04-28T11:41:18;99980.31;;;18.64;39.46
64827;BME280;51265;53.972;12.286;2023-04-28T11:43:45;99945.56;;;18.77;38.03
64827;BME280;51265;53.972;12.286;2023-04-28T11:46:16;99899.56;;;18.90;37.30
64827;BME280;51265;53.972;12.286;2023-04-28T11:48:43;99916.53;;;19.05;37.38
64827;BME280;51265;53.972;12.286;2023-04-28T11:51:09;99983.34;;;19.40;39.01
64827;BME280;51265;53.972;12.286;2023-04-28T11:53:43;99965.38;;;19.64;38.01
64827;BME280;51265;53.972;12.286;2023-04-28T11:56:10;99934.53;;;19.83;36.96
64827;BME280;51265;53.972;12.286;2023-04-28T11:58:38;99901.50;;;19.93;35.88
64827;BME280;51265;53.972;12.286;2023-04-28T12:01:06;99916.84;;;20.06;35.92
64827;BME280;51265;53.972;12.286;2023-04-28T12:03:44;99893.69;;;19.75;37.04
64827;BME280;51265;53.972;12.286;2023-04-28T12:06:11;99911.16;;;19.69;37.04
64827;BME280;51265;53.972;12.286;2023-04-28T12:08:42;99930.50;;;19.81;37.32
64827;BME280;51265;53.972;12.286;2023-04-28T12:11:12;99941.06;;;19.41;38.20
64827;BME280;51265;53.972;12.286;2023-04-28T12:13:40;99986.53;;;19.92;38.66
64827;BME280;51265;53.972;12.286;2023-04-28T12:16:07;99955.50;;;20.00;37.55
64827;BME280;51265;53.972;12.286;2023-04-28T12:18:36;99948.44;;;19.80;38.28
64827;BME280;51265;53.972;12.286;2023-04-28T12:21:04;99949.75;;;19.89;38.32
64827;BME280;51265;53.972;12.286;2023-04-28T12:23:35;99945.34;;;20.15;37.20
64827;BME280;51265;53.972;12.286;2023-04-28T12:26:01;99935.50;;;19.68;38.22
64827;BME280;51265;53.972;12.286;2023-04-28T12:28:38;99948.97;;;19.89;38.02
64827;BME280;51265;53.972;12.286;2023-04-28T12:31:06;99931.63;;;19.76;37.98
64827;BME280;51265;53.972;12.286;2023-04-28T12:33:36;99935.09;;;19.66;38.16
64827;BME280;51265;53.972;12.286;2023-04-28T12:36:03;99955.63;;;20.07;38.10
64827;BME280;51265;53.972;12.286;2023-04-28T12:38:31;99942.09;;;20.13;37.91
64827;BME280;51265;53.972;12.286;2023-04-28T12:40:59;99971.63;;;20.40;37.69
64827;BME280;51265;53.972;12.286;2023-04-28T12:43:25;99960.50;;;20.48;37.67
64827;BME280;51265;53.972;12.286;2023-04-28T12:45:54;99954.88;;;20.81;36.96
64827;BME280;51265;53.972;12.286;2023-04-28T12:48:23;99907.34;;;20.48;36.42
64827;BME280;51265;53.972;12.286;2023-04-28T12:50:50;99867.38;;;19.76;36.93
64827;BME280;51265;53.972;12.286;2023-04-28T12:53:17;99889.97;;;19.94;37.18
64827;BME280;51265;53.972;12.286;2023-04-28T12:55:43;99902.41;;;19.70;37.58
64827;BME280;51265;53.972;12.286;2023-04-28T12:58:13;99917.19;;;20.01;37.56
64827;BME280;51265;53.972;12.286;2023-04-28T13:00:39;99917.44;;;20.22;37.27
64827;BME280;51265;53.972;12.286;2023-04-28T13:03:06;99942.38;;;20.34;38.15
64827;BME280;51265;53.972;12.286;2023-04-28T13:05:33;99898.53;;;20.08;37.23
64827;BME280;51265;53.972;12.286;2023-04-28T13:08:00;99917.19;;;20.68;36.52
64827;BME280;51265;53.972;12.286;2023-04-28T13:10:26;99907.13;;;20.26;37.03
64827;BME280;51265;53.972;12.286;2023-04-28T13:12:53;99882.69;;;19.89;37.43